createdAt,value
2022-07-28T00:02:52.557Z,16.86
2022-07-28T00:05:56.427Z,16.85
2022-07-28T00:09:00.053Z,16.77
2022-07-28T00:12:04.828Z,16.76
2022-07-28T00:15:09.762Z,16.70
2022-07-28T00:18:13.936Z,16.65
2022-07-28T00:21:18.173Z,16.62
2022-07-28T00:24:23.461Z,16.58
2022-07-28T00:27:27.567Z,16.56
2022-07-28T00:30:31.330Z,16.53
2022-07-28T00:33:35.286Z,16.45
2022-07-28T00:36:42.026Z,16.43
2022-07-28T00:39:45.999Z,16.39
2022-07-28T00:42:49.977Z,16.39
2022-07-28T00:45:56.626Z,16.32
2022-07-28T00:49:01.587Z,16.29
2022-07-28T00:52:08.621Z,16.27
2022-07-28T00:55:12.661Z,16.29
2022-07-28T00:58:16.794Z,16.25
2022-07-28T01:01:21.234Z,16.16
2022-07-28T01:04:25.878Z,16.17
2022-07-28T01:08:16.314Z,16.18
2022-07-28T01:11:31.958Z,16.16
2022-07-28T01:14:56.274Z,16.08
2022-07-28T01:18:16.071Z,16.07
2022-07-28T01:21:26.513Z,16.04
2022-07-28T01:24:47.189Z,16.00
2022-07-28T01:28:16.124Z,15.98
2022-07-28T01:31:24.689Z,15.96
2022-07-28T01:34:47.780Z,15.92
2022-07-28T01:37:59.671Z,15.90
2022-07-28T01:41:07.582Z,15.86
2022-07-28T01:44:17.005Z,15.84
2022-07-28T01:47:22.615Z,15.85
2022-07-28T01:50:28.158Z,15.79
2022-07-28T01:53:38.113Z,15.73
2022-07-28T01:56:43.326Z,15.72
2022-07-28T01:59:48.864Z,15.72
2022-07-28T02:02:53.954Z,15.71
2022-07-28T02:06:02.734Z,15.67
2022-07-28T02:09:08.145Z,15.62
2022-07-28T02:12:16.871Z,15.58
2022-07-28T02:15:21.439Z,15.58
2022-07-28T02:18:26.902Z,15.53
2022-07-28T02:21:33.149Z,15.43
2022-07-28T02:24:41.869Z,15.43
2022-07-28T02:28:07.898Z,15.40
2022-07-28T02:31:20.186Z,15.37
2022-07-28T02:34:28.003Z,15.41
2022-07-28T02:37:36.181Z,15.35
2022-07-28T02:40:42.964Z,15.31
2022-07-28T02:43:49.709Z,15.27
2022-07-28T02:46:58.149Z,15.23
2022-07-28T02:50:04.068Z,15.23
2022-07-28T02:53:15.426Z,15.18
2022-07-28T02:56:20.935Z,15.11
2022-07-28T02:59:26.758Z,15.01
2022-07-28T03:02:33.432Z,15.01
2022-07-28T03:05:39.687Z,15.00
2022-07-28T03:08:44.293Z,14.97
2022-07-28T03:11:54.703Z,14.95
2022-07-28T03:14:58.588Z,14.97
2022-07-28T03:18:04.442Z,14.98
2022-07-28T03:21:08.291Z,14.96
2022-07-28T03:24:13.020Z,14.97
2022-07-28T03:27:20.084Z,14.96
2022-07-28T03:30:31.760Z,14.98
2022-07-28T03:33:36.593Z,14.95
2022-07-28T03:36:45.483Z,14.89
2022-07-28T03:39:51.724Z,14.88
2022-07-28T03:42:57.873Z,14.81
2022-07-28T03:46:02.071Z,14.80
2022-07-28T03:49:08.393Z,14.73
2022-07-28T03:52:12.702Z,14.76
2022-07-28T03:55:16.798Z,14.67
2022-07-28T03:58:26.318Z,14.68
2022-07-28T04:01:32.934Z,14.71
2022-07-28T04:04:37.528Z,14.77
2022-07-28T04:07:41.934Z,14.83
2022-07-28T04:10:45.944Z,14.88
2022-07-28T04:13:50.061Z,14.97
2022-07-28T04:16:54.049Z,15.07
2022-07-28T04:19:58.188Z,15.13
2022-07-28T04:23:02.475Z,15.16
2022-07-28T04:26:06.416Z,15.14
2022-07-28T04:29:10.465Z,15.18
2022-07-28T04:32:14.644Z,15.17
2022-07-28T04:35:19.618Z,15.24
2022-07-28T04:38:24.726Z,15.25
2022-07-28T04:41:28.603Z,15.29
2022-07-28T04:44:33.426Z,15.32
2022-07-28T04:47:37.883Z,15.36
2022-07-28T04:50:42.432Z,15.45
2022-07-28T04:53:47.616Z,15.47
2022-07-28T04:56:52.357Z,15.50
2022-07-28T04:59:57.687Z,15.54
2022-07-28T05:03:02.648Z,15.52
2022-07-28T05:06:06.643Z,15.57
2022-07-28T05:09:10.812Z,15.57
2022-07-28T05:12:15.423Z,15.69
2022-07-28T05:15:19.454Z,15.77
2022-07-28T05:18:23.269Z,15.90
2022-07-28T05:21:27.480Z,16.01
2022-07-28T05:24:31.836Z,16.14
2022-07-28T05:27:36.033Z,16.19
2022-07-28T05:30:40.124Z,16.23
2022-07-28T05:33:44.064Z,16.34
2022-07-28T05:36:50.281Z,16.27
2022-07-28T05:39:54.242Z,16.34
2022-07-28T05:42:58.398Z,16.42
2022-07-28T05:46:02.570Z,16.53
2022-07-28T05:49:06.753Z,16.65
2022-07-28T05:52:10.851Z,16.63
2022-07-28T05:55:16.588Z,16.62
2022-07-28T05:58:21.873Z,16.70
2022-07-28T06:01:26.070Z,16.79
2022-07-28T06:04:30.510Z,16.76
2022-07-28T06:07:43.658Z,16.83
2022-07-28T06:11:09.605Z,16.94
2022-07-28T06:14:13.828Z,16.98
2022-07-28T06:17:21.350Z,17.03
2022-07-28T06:20:27.704Z,17.08
2022-07-28T06:23:31.552Z,17.14
2022-07-28T06:26:43.719Z,17.18
2022-07-28T06:29:48.628Z,17.13
2022-07-28T06:32:53.030Z,17.12
2022-07-28T06:35:57.142Z,17.18
2022-07-28T06:39:01.548Z,17.05
2022-07-28T06:42:05.791Z,17.03
2022-07-28T06:45:21.053Z,17.09
2022-07-28T06:48:29.113Z,17.11
2022-07-28T06:51:33.690Z,17.09
2022-07-28T06:54:42.328Z,17.20
2022-07-28T06:57:53.053Z,17.43
2022-07-28T07:00:57.095Z,17.94
2022-07-28T07:04:01.078Z,18.41
2022-07-28T07:07:14.778Z,18.75
2022-07-28T07:10:21.077Z,18.24
2022-07-28T07:13:25.345Z,18.59
2022-07-28T07:16:29.630Z,18.70
2022-07-28T07:19:33.676Z,19.41
2022-07-28T07:22:45.545Z,19.39
2022-07-28T07:25:49.874Z,19.40
2022-07-28T07:28:53.897Z,19.34
2022-07-28T07:31:58.671Z,19.34
2022-07-28T07:35:02.849Z,19.31
2022-07-28T07:38:07.270Z,19.45
2022-07-28T07:41:12.275Z,20.32
2022-07-28T07:44:16.555Z,21.73
2022-07-28T07:47:20.652Z,22.99
2022-07-28T07:50:24.717Z,23.56
2022-07-28T07:53:29.127Z,23.85
2022-07-28T07:56:33.290Z,24.20
2022-07-28T07:59:37.547Z,24.52
2022-07-28T08:02:41.909Z,24.94
2022-07-28T08:05:45.924Z,25.19
2022-07-28T08:08:50.260Z,25.83
2022-07-28T08:11:54.478Z,27.04
2022-07-28T08:14:58.538Z,28.20
2022-07-28T08:18:03.342Z,28.77
2022-07-28T08:21:07.642Z,26.83
2022-07-28T08:24:12.136Z,27.68
2022-07-28T08:27:21.810Z,27.58
2022-07-28T08:30:31.788Z,27.44
2022-07-28T08:33:54.197Z,28.30
2022-07-28T08:36:58.871Z,28.81
2022-07-28T08:40:04.262Z,28.22
2022-07-28T08:43:38.721Z,29.40
2022-07-28T08:46:44.272Z,29.24
2022-07-28T08:49:51.730Z,29.69
2022-07-28T08:52:56.246Z,28.95
2022-07-28T08:56:15.805Z,28.16
2022-07-28T08:59:20.041Z,27.64
2022-07-28T09:02:27.028Z,27.69
2022-07-28T09:05:32.399Z,27.11
2022-07-28T09:08:36.932Z,27.14
2022-07-28T09:11:41.031Z,26.54
2022-07-28T09:14:46.000Z,26.08
2022-07-28T09:17:50.260Z,25.09
2022-07-28T09:20:55.490Z,24.99
2022-07-28T09:24:00.681Z,24.96
2022-07-28T09:27:07.697Z,24.98
2022-07-28T09:30:12.594Z,25.02
2022-07-28T09:33:42.902Z,24.83
2022-07-28T09:36:45.948Z,24.88
2022-07-28T09:39:50.380Z,25.24
2022-07-28T09:42:57.268Z,25.09
2022-07-28T09:46:10.904Z,24.89
2022-07-28T09:49:15.123Z,24.82
2022-07-28T09:52:36.698Z,24.79
2022-07-28T09:55:54.373Z,24.67
2022-07-28T09:58:59.395Z,24.83
2022-07-28T10:02:04.278Z,24.16
2022-07-28T10:05:09.059Z,24.49
2022-07-28T10:08:12.881Z,24.52
2022-07-28T10:11:20.029Z,24.43
2022-07-28T10:14:32.533Z,24.28
2022-07-28T10:17:36.821Z,24.05
2022-07-28T10:20:40.758Z,24.03
2022-07-28T10:23:51.175Z,23.97
2022-07-28T10:26:57.326Z,23.41
2022-07-28T10:30:03.871Z,23.30
2022-07-28T10:33:15.681Z,23.49
2022-07-28T10:36:24.028Z,23.22
2022-07-28T10:39:32.477Z,23.41
2022-07-28T10:42:36.820Z,23.47
2022-07-28T10:46:04.369Z,23.70
2022-07-28T10:49:05.706Z,23.63
2022-07-28T10:52:37.649Z,23.52
2022-07-28T10:55:55.211Z,23.60
2022-07-28T10:59:33.634Z,23.73
2022-07-28T11:02:56.880Z,23.85
2022-07-28T11:06:19.902Z,23.67
2022-07-28T11:09:23.808Z,23.67
2022-07-28T11:12:51.363Z,23.74
2022-07-28T11:15:56.321Z,24.00
2022-07-28T11:19:38.045Z,23.96
2022-07-28T11:22:34.365Z,23.68
2022-07-28T11:25:39.020Z,23.70
2022-07-28T11:29:00.081Z,23.66
2022-07-28T11:32:04.617Z,23.66
2022-07-28T11:35:09.812Z,23.71
2022-07-28T11:38:14.710Z,23.57
2022-07-28T11:41:31.382Z,23.63
2022-07-28T11:44:35.491Z,23.80
2022-07-28T11:47:39.413Z,23.88
2022-07-28T11:51:03.501Z,24.14
2022-07-28T11:54:17.314Z,24.34
2022-07-28T11:57:24.280Z,24.40
2022-07-28T12:00:29.336Z,24.45
2022-07-28T12:03:49.523Z,24.35
2022-07-28T12:06:58.877Z,24.42
2022-07-28T12:10:44.172Z,24.33
2022-07-28T12:13:47.141Z,24.10
2022-07-28T12:16:51.603Z,24.26
2022-07-28T12:19:55.789Z,24.18
2022-07-28T12:23:05.672Z,24.24
2022-07-28T12:26:10.089Z,24.38
2022-07-28T12:29:15.621Z,24.27
2022-07-28T12:32:20.666Z,24.66
2022-07-28T12:35:25.475Z,24.78
2022-07-28T12:38:29.749Z,24.51
2022-07-28T12:41:40.970Z,24.53
2022-07-28T12:44:54.139Z,24.47
2022-07-28T12:48:05.264Z,24.63
2022-07-28T12:51:09.272Z,24.71
2022-07-28T12:54:15.803Z,24.67
2022-07-28T12:57:59.115Z,24.80
2022-07-28T13:01:08.891Z,24.77
2022-07-28T13:04:13.298Z,24.73
2022-07-28T13:07:20.457Z,24.68
2022-07-28T13:10:24.707Z,24.61
2022-07-28T13:13:45.155Z,24.61
2022-07-28T13:16:58.590Z,24.53
2022-07-28T13:20:10.183Z,24.61
2022-07-28T13:23:14.542Z,24.48
2022-07-28T13:26:18.876Z,24.50
2022-07-28T13:29:23.822Z,24.59
2022-07-28T13:32:27.948Z,24.63
2022-07-28T13:35:31.970Z,24.83
2022-07-28T13:38:35.886Z,24.88
2022-07-28T13:41:48.622Z,24.93
2022-07-28T13:45:02.817Z,24.83
2022-07-28T13:48:09.058Z,24.88
2022-07-28T13:51:14.045Z,24.79
2022-07-28T13:54:19.034Z,24.76
2022-07-28T13:57:23.780Z,24.83
2022-07-28T14:00:29.493Z,24.86
2022-07-28T14:03:53.593Z,24.98
2022-07-28T14:06:58.070Z,24.61
2022-07-28T14:10:02.299Z,24.71
2022-07-28T14:13:06.644Z,24.75
2022-07-28T14:16:14.334Z,24.78
2022-07-28T14:19:23.618Z,24.88
2022-07-28T14:22:43.957Z,24.91
2022-07-28T14:25:49.506Z,24.87
2022-07-28T14:28:54.052Z,24.83
2022-07-28T14:31:59.399Z,24.85
2022-07-28T14:35:03.915Z,24.92
2022-07-28T14:41:34.141Z,25.03
2022-07-28T14:44:38.528Z,25.12
2022-07-28T14:47:44.400Z,24.88
2022-07-28T14:50:51.725Z,24.83
2022-07-28T14:53:57.796Z,24.91
2022-07-28T14:57:02.950Z,24.95
2022-07-28T15:00:15.233Z,24.92
2022-07-28T15:03:19.316Z,24.99
2022-07-28T15:06:23.307Z,24.99
2022-07-28T15:09:27.609Z,25.13
2022-07-28T15:12:31.910Z,25.00
2022-07-28T15:15:35.971Z,25.10
2022-07-28T15:18:39.953Z,25.09
2022-07-28T15:21:45.729Z,24.95
2022-07-28T15:24:50.248Z,24.93
2022-07-28T15:27:54.595Z,24.91
2022-07-28T15:30:58.984Z,24.89
2022-07-28T15:34:03.483Z,24.93
2022-07-28T15:37:07.997Z,24.94
2022-07-28T15:40:13.978Z,25.10
2022-07-28T15:43:18.321Z,25.10
2022-07-28T15:46:27.673Z,25.21
2022-07-28T15:49:31.822Z,25.23
2022-07-28T15:52:36.236Z,25.27
2022-07-28T15:55:41.263Z,25.24
2022-07-28T15:58:45.104Z,24.97
2022-07-28T16:01:49.148Z,24.99
2022-07-28T16:04:54.525Z,24.99
2022-07-28T16:07:58.826Z,24.97
2022-07-28T16:11:03.618Z,24.89
2022-07-28T16:14:07.850Z,24.80
2022-07-28T16:17:12.083Z,24.80
2022-07-28T16:20:17.659Z,24.77
2022-07-28T16:23:21.623Z,24.70
2022-07-28T16:26:26.335Z,24.60
2022-07-28T16:29:31.497Z,24.57
2022-07-28T16:32:35.411Z,24.52
2022-07-28T16:35:39.443Z,24.74
2022-07-28T16:38:43.751Z,24.67
2022-07-28T16:41:48.609Z,24.66
2022-07-28T16:44:52.305Z,24.63
2022-07-28T16:47:56.317Z,24.76
2022-07-28T16:51:00.397Z,24.58
2022-07-28T16:54:04.717Z,24.57
2022-07-28T16:57:08.986Z,24.51
2022-07-28T17:00:15.444Z,24.46
2022-07-28T17:03:19.271Z,24.54
2022-07-28T17:06:25.490Z,24.52
2022-07-28T17:09:29.772Z,24.56
2022-07-28T17:12:34.219Z,24.47
2022-07-28T17:15:39.397Z,24.47
2022-07-28T17:18:43.546Z,24.55
2022-07-28T17:21:48.247Z,24.47
2022-07-28T17:24:52.323Z,24.41
2022-07-28T17:27:56.372Z,24.35
2022-07-28T17:31:00.751Z,24.38
2022-07-28T17:34:05.097Z,24.43
2022-07-28T17:37:09.522Z,24.31
2022-07-28T17:40:13.873Z,24.26
2022-07-28T17:43:28.098Z,24.36
2022-07-28T17:46:34.856Z,24.31
2022-07-28T17:49:43.430Z,24.25
2022-07-28T17:52:49.256Z,24.09
2022-07-28T17:56:00.352Z,24.02
2022-07-28T17:59:06.746Z,23.89
2022-07-28T18:02:11.013Z,23.89
2022-07-28T18:05:19.144Z,23.75
2022-07-28T18:08:25.012Z,23.77
2022-07-28T18:11:29.996Z,23.64
2022-07-28T18:14:34.098Z,23.57
2022-07-28T18:17:38.142Z,23.52
2022-07-28T18:20:59.998Z,23.36
2022-07-28T18:24:04.598Z,23.37
2022-07-28T18:27:08.338Z,23.25
2022-07-28T18:30:12.981Z,23.12
2022-07-28T18:33:18.159Z,23.05
2022-07-28T18:36:22.447Z,22.97
2022-07-28T18:39:26.601Z,22.94
2022-07-28T18:42:33.827Z,22.91
2022-07-28T18:45:37.867Z,22.86
2022-07-28T18:48:42.134Z,22.77
2022-07-28T18:51:46.212Z,22.72
2022-07-28T18:54:51.526Z,22.67
2022-07-28T18:57:55.639Z,22.56
2022-07-28T19:01:00.323Z,22.51
2022-07-28T19:04:04.724Z,22.58
2022-07-28T19:07:09.455Z,22.44
2022-07-28T19:10:13.566Z,22.35
2022-07-28T19:13:17.557Z,22.35
2022-07-28T19:16:21.704Z,22.26
2022-07-28T19:19:26.088Z,22.19
2022-07-28T19:22:30.623Z,22.14
2022-07-28T19:25:37.813Z,22.11
2022-07-28T19:28:42.327Z,22.09
2022-07-28T19:31:46.428Z,22.02
2022-07-28T19:34:50.538Z,21.93
2022-07-28T19:37:59.567Z,21.90
2022-07-28T19:41:03.492Z,21.86
2022-07-28T19:44:07.936Z,21.82
2022-07-28T19:47:12.184Z,21.79
2022-07-28T19:50:16.706Z,21.74
2022-07-28T19:53:20.663Z,21.60
2022-07-28T19:56:31.594Z,21.57
2022-07-28T19:59:35.990Z,21.48
2022-07-28T20:02:40.922Z,21.43
2022-07-28T20:05:45.320Z,21.41
2022-07-28T20:08:50.308Z,21.35
2022-07-28T20:11:56.230Z,21.38
2022-07-28T20:15:00.245Z,21.29
2022-07-28T20:18:04.954Z,21.22
2022-07-28T20:21:09.065Z,21.17
2022-07-28T20:24:15.559Z,21.04
2022-07-28T20:27:20.447Z,21.00
2022-07-28T20:30:25.113Z,20.93
2022-07-28T20:33:30.116Z,20.90
2022-07-28T20:36:34.626Z,20.86
2022-07-28T20:39:45.106Z,20.83
2022-07-28T20:42:53.242Z,20.77
2022-07-28T20:45:57.585Z,20.66
2022-07-28T20:49:01.816Z,20.60
2022-07-28T20:52:06.809Z,20.53
2022-07-28T20:55:11.486Z,20.52
2022-07-28T20:58:15.534Z,20.48
2022-07-28T21:01:23.352Z,20.45
2022-07-28T21:04:27.533Z,20.33
2022-07-28T21:08:04.928Z,20.32
2022-07-28T21:10:57.099Z,20.28
2022-07-28T21:14:01.299Z,20.20
2022-07-28T21:17:05.424Z,20.11
2022-07-28T21:20:10.054Z,20.07
2022-07-28T21:23:14.052Z,19.98
2022-07-28T21:26:18.313Z,19.98
2022-07-28T21:32:25.435Z,19.88
2022-07-28T21:35:29.531Z,19.85
2022-07-28T21:38:33.440Z,19.79
2022-07-28T21:41:37.654Z,19.72
2022-07-28T21:44:41.760Z,19.68
2022-07-28T21:47:45.637Z,19.67
2022-07-28T21:50:50.838Z,19.68
2022-07-28T21:53:55.727Z,19.61
2022-07-28T21:56:59.881Z,19.57
2022-07-28T22:00:09.141Z,19.54
2022-07-28T22:03:13.316Z,19.57
2022-07-28T22:06:17.515Z,19.47
2022-07-28T22:09:21.668Z,19.41
2022-07-28T22:12:26.116Z,19.41
2022-07-28T22:15:29.989Z,19.36
2022-07-28T22:18:34.127Z,19.32
2022-07-28T22:21:38.285Z,19.33
2022-07-28T22:24:42.397Z,19.29
2022-07-28T22:27:46.257Z,19.18
2022-07-28T22:30:50.587Z,19.25
2022-07-28T22:33:54.909Z,19.14
2022-07-28T22:37:00.022Z,19.11
2022-07-28T22:40:05.037Z,19.15
2022-07-28T22:43:09.109Z,19.08
2022-07-28T22:46:13.673Z,19.03
2022-07-28T22:49:17.600Z,18.98
2022-07-28T22:52:26.371Z,19.01
2022-07-28T22:55:30.750Z,18.93
2022-07-28T22:58:34.786Z,18.92
2022-07-28T23:01:39.201Z,18.85
2022-07-28T23:04:45.825Z,18.87
2022-07-28T23:07:57.087Z,18.86
2022-07-28T23:11:01.694Z,18.89
2022-07-28T23:14:05.826Z,18.85
2022-07-28T23:17:10.243Z,18.85
2022-07-28T23:20:14.506Z,18.85
2022-07-28T23:23:18.930Z,18.85
2022-07-28T23:26:23.069Z,18.86
2022-07-28T23:29:27.419Z,18.86
2022-07-28T23:32:31.890Z,18.82
2022-07-28T23:35:36.107Z,18.83
2022-07-28T23:38:40.076Z,18.84
2022-07-28T23:41:44.180Z,18.84
2022-07-28T23:44:48.480Z,18.82
2022-07-28T23:47:58.435Z,18.83
2022-07-28T23:51:02.871Z,18.81
2022-07-28T23:54:07.209Z,18.80
2022-07-28T23:57:11.535Z,18.75
